Time;durP1;ratioP1;P1;durP2;ratioP2;P2;SDS_P1;SDS_P2;PMS_P1;PMS_P2;Temp;Humidity;BMP_temperature;BMP_pressure;BME280_temperature;BME280_humidity;BME280_pressure;Samples;Min_cycle;Max_cycle;Signal;HPM_P1;HPM_P2
2021/05/29 00:01:53;;;;;;;2.85;1.20;;;19.30;96.50;;;;;;5099048;28;20489;-78
2021/05/29 00:04:22;;;;;;;5.55;1.55;;;19.30;96.40;;;;;;5099720;27;20051;-77
2021/05/29 00:06:52;;;;;;;4.85;1.38;;;19.20;96.70;;;;;;5102793;27;20043;-77
2021/05/29 00:09:22;;;;;;;3.35;1.77;;;18.90;96.70;;;;;;5110298;27;20126;-77
2021/05/29 00:11:51;;;;;;;3.22;1.70;;;18.50;96.70;;;;;;5102910;27;20183;-77
2021/05/29 00:14:22;;;;;;;4.45;2.00;;;18.60;96.70;;;;;;5103548;27;20524;-77
2021/05/29 00:16:52;;;;;;;4.63;1.65;;;18.50;96.70;;;;;;5103822;27;20054;-77
2021/05/29 00:19:22;;;;;;;4.95;1.77;;;18.50;96.70;;;;;;5103898;27;20119;-77
2021/05/29 00:21:52;;;;;;;4.13;1.40;;;18.70;96.70;;;;;;5106017;27;20386;-77
2021/05/29 00:24:22;;;;;;;5.80;1.92;;;19.00;96.70;;;;;;5104654;27;20055;-77
2021/05/29 00:26:52;;;;;;;6.68;1.92;;;19.10;96.70;;;;;;5102877;27;20465;-76
2021/05/29 00:29:22;;;;;;;6.72;2.03;;;18.90;96.70;;;;;;5104220;27;20039;-77
2021/05/29 00:31:52;;;;;;;4.35;1.85;;;18.90;96.70;;;;;;5103964;27;20031;-77
2021/05/29 00:34:22;;;;;;;7.35;2.13;;;19.00;96.70;;;;;;5103149;27;20122;-76
2021/05/29 00:36:55;;;;;;;4.25;1.55;;;19.00;96.70;;;;;;5104130;27;20050;-77
2021/05/29 00:39:35;;;;;;;2.87;1.60;;;19.20;96.70;;;;;;5101825;27;20047;-77
2021/05/29 00:42:11;;;;;;;6.60;2.00;;;19.20;96.70;;;;;;5106264;27;20293;-77
2021/05/29 00:44:46;;;;;;;5.53;1.70;;;19.30;96.70;;;;;;5102380;27;20089;-77
2021/05/29 00:47:19;;;;;;;4.78;1.95;;;19.20;96.70;;;;;;5107298;27;20206;-77
2021/05/29 00:49:50;;;;;;;5.55;1.67;;;19.10;96.70;;;;;;5109897;27;20089;-77
2021/05/29 00:52:26;;;;;;;3.97;1.48;;;19.00;96.70;;;;;;5102834;27;20047;-77
2021/05/29 00:54:56;;;;;;;3.22;1.40;;;18.90;96.70;;;;;;5083191;28;20040;-77
2021/05/29 00:57:29;;;;;;;3.25;1.58;;;18.80;96.70;;;;;;5102122;27;20497;-77
2021/05/29 01:00:05;;;;;;;3.65;1.40;;;18.90;96.70;;;;;;5098598;27;20089;-77
2021/05/29 01:02:33;;;;;;;3.80;1.40;;;19.00;96.70;;;;;;5100570;27;20150;-77
2021/05/29 01:05:50;;;;;;;5.00;1.55;;;19.00;96.70;;;;;;5083556;27;20047;-77
2021/05/29 01:08:24;;;;;;;4.13;1.55;;;18.90;96.70;;;;;;5088786;28;20148;-77
2021/05/29 01:10:52;;;;;;;4.05;1.40;;;18.60;96.70;;;;;;5088873;27;20058;-77
2021/05/29 01:13:27;;;;;;;4.22;1.40;;;18.50;96.70;;;;;;5100938;27;20071;-78
2021/05/29 01:16:00;;;;;;;3.78;1.30;;;18.50;96.70;;;;;;5104290;27;20564;-77
2021/05/29 01:18:28;;;;;;;4.03;1.30;;;18.60;96.70;;;;;;5100666;28;20047;-78
2021/05/29 01:21:27;;;;;;;4.88;1.60;;;18.60;96.70;;;;;;5102417;27;20065;-77
2021/05/29 01:23:57;;;;;;;3.88;1.33;;;18.70;96.70;;;;;;5100829;27;20573;-77
2021/05/29 01:26:26;;;;;;;3.88;1.75;;;18.60;96.70;;;;;;5102202;27;20409;-77
2021/05/29 01:28:57;;;;;;;2.95;1.30;;;18.60;96.70;;;;;;5096789;28;20473;-77
2021/05/29 01:31:30;;;;;;;4.18;1.55;;;18.70;96.70;;;;;;5099963;27;20540;-77
2021/05/29 01:34:02;;;;;;;4.22;1.70;;;18.70;96.70;;;;;;5099922;27;20039;-77
2021/05/29 01:36:31;;;;;;;2.25;1.40;;;18.60;96.70;;;;;;5100335;27;20036;-78
2021/05/29 01:39:06;;;;;;;7.30;1.63;;;18.50;96.70;;;;;;5104954;27;20038;-78
2021/05/29 01:41:37;;;;;;;3.97;1.20;;;18.50;96.70;;;;;;5099982;27;20134;-77
2021/05/29 01:44:09;;;;;;;4.22;1.63;;;18.40;96.70;;;;;;5100261;27;20058;-77
2021/05/29 01:46:39;;;;;;;3.58;1.67;;;18.30;96.70;;;;;;5104493;27;20058;-78
2021/05/29 01:49:09;;;;;;;4.57;1.83;;;18.20;96.70;;;;;;5106177;27;20587;-78
2021/05/29 01:51:39;;;;;;;3.47;1.50;;;18.30;96.70;;;;;;5105907;27;20119;-77
2021/05/29 01:54:14;;;;;;;4.45;1.50;;;18.20;96.70;;;;;;5105367;27;20122;-78
2021/05/29 01:56:45;;;;;;;4.38;1.67;;;18.20;96.70;;;;;;5102387;27;20040;-78
2021/05/29 01:59:14;;;;;;;4.30;1.70;;;18.20;96.70;;;;;;5102431;27;20054;-77
2021/05/29 02:01:44;;;;;;;4.38;1.60;;;18.20;96.70;;;;;;5079549;28;20139;-77
2021/05/29 02:04:14;;;;;;;2.42;1.30;;;18.20;96.70;;;;;;5108273;27;20054;-77
2021/05/29 02:06:44;;;;;;;4.50;1.75;;;18.00;96.70;;;;;;5102116;27;20198;-77
2021/05/29 02:09:15;;;;;;;3.60;1.60;;;18.00;96.70;;;;;;5103768;27;20047;-78
2021/05/29 02:11:45;;;;;;;2.88;1.35;;;18.10;96.70;;;;;;5097812;28;20044;-77
2021/05/29 02:14:16;;;;;;;3.65;1.48;;;18.00;96.70;;;;;;5096328;27;20048;-78
2021/05/29 02:16:45;;;;;;;3.70;1.58;;;18.00;96.70;;;;;;5098843;28;20300;-77
2021/05/29 02:19:14;;;;;;;4.45;1.70;;;18.20;96.70;;;;;;5102851;27;20383;-77
2021/05/29 02:21:44;;;;;;;4.38;1.98;;;18.10;96.70;;;;;;5083811;28;20079;-78
2021/05/29 02:24:15;;;;;;;3.45;1.30;;;18.10;96.70;;;;;;5098282;28;20079;-78
2021/05/29 02:26:44;;;;;;;3.00;1.50;;;18.10;96.70;;;;;;5100671;28;20036;-77
2021/05/29 02:29:13;;;;;;;3.55;1.42;;;18.10;96.70;;;;;;5098975;27;20039;-77
2021/05/29 02:31:41;;;;;;;5.13;1.70;;;17.90;96.70;;;;;;5103794;28;20044;-77
2021/05/29 02:34:11;;;;;;;2.67;1.35;;;17.90;96.70;;;;;;5100476;28;20035;-77
2021/05/29 02:36:39;;;;;;;5.70;1.70;;;17.90;96.70;;;;;;5098027;28;20560;-78
2021/05/29 02:39:08;;;;;;;4.07;1.40;;;18.00;96.70;;;;;;5100981;28;20059;-77
2021/05/29 02:41:38;;;;;;;3.58;1.58;;;18.00;96.70;;;;;;5097198;28;20040;-77
2021/05/29 02:44:08;;;;;;;2.00;1.40;;;18.00;96.70;;;;;;5087200;28;20043;-78
2021/05/29 02:46:38;;;;;;;2.85;1.52;;;17.90;96.70;;;;;;5097087;28;20039;-77
2021/05/29 02:49:08;;;;;;;4.68;1.80;;;17.80;96.70;;;;;;5100857;28;20742;-76
2021/05/29 02:51:37;;;;;;;3.97;2.00;;;17.80;96.70;;;;;;5098273;28;20081;-76
2021/05/29 02:54:08;;;;;;;3.55;1.40;;;17.80;96.70;;;;;;5110637;27;20052;-77
2021/05/29 02:56:39;;;;;;;3.65;1.50;;;17.60;96.70;;;;;;5097306;28;20044;-77
2021/05/29 02:59:09;;;;;;;4.57;1.50;;;17.60;96.70;;;;;;5098576;28;20078;-76
2021/05/29 03:01:39;;;;;;;1.80;1.20;;;17.60;96.70;;;;;;5081908;28;20515;-77
2021/05/29 03:04:09;;;;;;;2.42;1.42;;;17.60;96.70;;;;;;5099847;28;20105;-76
2021/05/29 03:06:39;;;;;;;2.35;1.20;;;17.50;96.70;;;;;;5095770;28;20797;-77
2021/05/29 03:09:09;;;;;;;5.80;1.20;;;17.50;96.70;;;;;;5098488;28;20751;-77
2021/05/29 03:11:43;;;;;;;3.58;1.20;;;17.50;96.70;;;;;;5099359;28;20048;-77
2021/05/29 03:14:13;;;;;;;3.72;1.08;;;17.30;96.70;;;;;;5113290;27;20142;-77
2021/05/29 03:16:43;;;;;;;3.00;1.02;;;17.30;96.70;;;;;;5093981;28;20147;-77
2021/05/29 03:19:12;;;;;;;5.40;1.20;;;17.40;96.70;;;;;;5098354;28;20315;-77
2021/05/29 03:21:42;;;;;;;3.78;1.10;;;17.30;96.70;;;;;;5101853;28;20063;-77
2021/05/29 03:24:13;;;;;;;2.45;1.10;;;17.30;96.70;;;;;;5102664;28;20047;-77
2021/05/29 03:26:44;;;;;;;2.88;1.33;;;17.30;96.70;;;;;;5100957;28;20473;-77
2021/05/29 03:29:14;;;;;;;4.88;1.60;;;17.20;96.70;;;;;;5098833;28;20040;-77
2021/05/29 03:31:44;;;;;;;4.03;1.52;;;17.30;96.70;;;;;;5099342;28;20146;-77
2021/05/29 03:34:14;;;;;;;3.20;1.27;;;17.30;96.70;;;;;;5098423;28;20042;-77
2021/05/29 03:36:44;;;;;;;3.15;1.30;;;17.40;96.70;;;;;;5106006;27;20131;-76
2021/05/29 03:39:14;;;;;;;6.50;1.25;;;17.50;96.70;;;;;;5107199;27;20122;-77
2021/05/29 03:41:45;;;;;;;2.78;1.13;;;17.40;96.70;;;;;;5102669;27;20053;-77
2021/05/29 03:44:15;;;;;;;2.80;1.13;;;17.40;96.70;;;;;;5106090;27;20046;-77
2021/05/29 03:46:44;;;;;;;4.95;1.40;;;17.40;96.70;;;;;;5103140;27;20047;-77
2021/05/29 03:49:14;;;;;;;2.53;0.98;;;17.40;96.70;;;;;;5108610;27;20032;-78
2021/05/29 03:51:45;;;;;;;6.80;1.35;;;17.30;96.70;;;;;;5107195;27;20047;-77
2021/05/29 03:54:14;;;;;;;3.53;1.33;;;17.30;96.70;;;;;;5102692;27;20039;-77
2021/05/29 03:56:45;;;;;;;2.55;1.35;;;17.20;96.70;;;;;;5104275;27;20059;-77
2021/05/29 03:59:16;;;;;;;2.83;1.13;;;17.10;96.70;;;;;;5102254;27;20056;-77
2021/05/29 04:01:46;;;;;;;2.80;1.10;;;17.00;96.70;;;;;;5104759;27;20032;-77
2021/05/29 04:04:16;;;;;;;4.88;1.60;;;17.00;96.70;;;;;;5100055;27;20044;-77
2021/05/29 04:06:45;;;;;;;2.95;1.00;;;17.00;96.70;;;;;;5104851;27;20134;-77
2021/05/29 04:09:15;;;;;;;3.40;1.40;;;17.10;96.70;;;;;;5101702;27;20941;-77
2021/05/29 04:11:46;;;;;;;2.25;1.20;;;17.00;96.70;;;;;;5102071;27;20040;-77
2021/05/29 04:14:16;;;;;;;2.30;1.15;;;17.00;96.70;;;;;;5106311;27;20044;-77
2021/05/29 04:16:46;;;;;;;3.63;1.17;;;17.10;96.70;;;;;;5101170;27;20040;-77
2021/05/29 04:19:16;;;;;;;3.38;1.20;;;17.10;96.70;;;;;;5110868;27;20516;-77
2021/05/29 04:21:46;;;;;;;3.13;1.20;;;17.00;96.70;;;;;;5101398;27;20122;-78
2021/05/29 04:24:16;;;;;;;2.75;1.33;;;17.10;96.70;;;;;;5100487;27;20137;-77
2021/05/29 04:26:47;;;;;;;3.55;1.40;;;17.30;96.70;;;;;;5101681;27;20050;-77
2021/05/29 04:29:17;;;;;;;2.72;1.20;;;17.30;96.70;;;;;;5113300;27;20043;-77
2021/05/29 04:31:45;;;;;;;2.88;1.33;;;17.40;96.70;;;;;;5104709;27;20045;-79
2021/05/29 04:34:14;;;;;;;3.20;1.25;;;17.30;96.70;;;;;;5098720;27;20043;-78
2021/05/29 04:36:43;;;;;;;3.35;1.50;;;17.20;96.70;;;;;;5098096;27;20073;-78
2021/05/29 04:39:11;;;;;;;3.08;1.60;;;17.40;96.70;;;;;;5101228;27;20537;-78
2021/05/29 04:41:40;;;;;;;5.45;2.10;;;17.50;96.70;;;;;;5087830;27;20048;-78
2021/05/29 04:44:09;;;;;;;5.65;2.33;;;17.40;96.70;;;;;;5099340;27;20133;-79
2021/05/29 04:46:41;;;;;;;7.43;2.63;;;17.50;96.70;;;;;;5099922;27;20036;-79
2021/05/29 04:49:09;;;;;;;8.15;3.20;;;17.50;96.70;;;;;;5103373;27;20035;-78
2021/05/29 04:51:38;;;;;;;8.27;3.22;;;17.40;96.70;;;;;;5098031;27;20119;-78
2021/05/29 04:54:07;;;;;;;9.27;3.45;;;17.30;96.70;;;;;;5106175;27;20048;-78
2021/05/29 04:56:36;;;;;;;8.85;3.90;;;17.30;96.70;;;;;;5098817;27;20400;-78
2021/05/29 04:59:05;;;;;;;7.88;3.92;;;17.30;96.70;;;;;;5103142;27;20043;-78
2021/05/29 05:01:34;;;;;;;9.38;4.53;;;17.30;96.70;;;;;;5101861;27;20070;-78
2021/05/29 05:04:03;;;;;;;11.32;4.80;;;17.30;96.70;;;;;;5082974;28;20039;-78
2021/05/29 05:06:32;;;;;;;13.13;6.05;;;17.30;96.70;;;;;;5099678;28;20461;-78
2021/05/29 05:09:01;;;;;;;13.38;6.43;;;17.20;96.70;;;;;;5109871;27;20031;-78
2021/05/29 05:11:30;;;;;;;11.15;6.88;;;17.30;96.70;;;;;;5101278;27;20054;-79
2021/05/29 05:13:58;;;;;;;15.25;7.53;;;17.30;96.70;;;;;;5098133;28;20868;-78
2021/05/29 05:16:27;;;;;;;9.85;5.97;;;17.40;96.70;;;;;;5104136;27;20079;-78
2021/05/29 05:18:56;;;;;;;12.80;6.05;;;17.40;96.70;;;;;;5104669;27;20043;-78
2021/05/29 05:21:28;;;;;;;12.75;5.78;;;17.50;96.70;;;;;;5104857;27;20040;-79
2021/05/29 05:23:56;;;;;;;10.77;5.70;;;17.40;96.70;;;;;;5099912;28;20039;-78
2021/05/29 05:26:25;;;;;;;11.40;5.88;;;17.40;96.70;;;;;;5072876;28;20035;-79
2021/05/29 05:28:54;;;;;;;11.82;5.97;;;17.50;96.70;;;;;;5100678;28;20088;-79
2021/05/29 05:31:22;;;;;;;8.70;5.72;;;17.50;96.70;;;;;;5101894;27;20580;-79
2021/05/29 05:33:52;;;;;;;13.95;6.20;;;17.60;96.70;;;;;;5104249;27;23833;-79
2021/05/29 05:36:22;;;;;;;13.00;5.85;;;17.70;96.70;;;;;;5104413;27;20510;-80
2021/05/29 05:38:51;;;;;;;9.23;5.22;;;17.80;96.70;;;;;;5103169;27;20050;-81
2021/05/29 05:41:20;;;;;;;10.55;4.85;;;17.60;96.70;;;;;;5106456;27;20500;-81
2021/05/29 05:43:49;;;;;;;6.95;4.00;;;17.50;96.70;;;;;;5109000;27;20031;-80
2021/05/29 05:46:17;;;;;;;7.85;4.32;;;17.50;96.70;;;;;;5089377;28;20043;-80
2021/05/29 05:48:46;;;;;;;10.60;4.78;;;17.70;96.70;;;;;;5102023;27;20052;-78
2021/05/29 05:51:14;;;;;;;10.93;4.93;;;17.60;96.70;;;;;;5097100;28;20039;-78
2021/05/29 05:53:44;;;;;;;10.45;5.32;;;17.60;96.70;;;;;;5098806;27;20504;-78
2021/05/29 05:56:16;;;;;;;8.98;4.65;;;17.70;96.70;;;;;;5083092;27;20351;-79
2021/05/29 05:58:44;;;;;;;10.30;5.30;;;17.80;96.70;;;;;;5079245;28;20092;-78
2021/05/29 06:01:13;;;;;;;9.45;4.63;;;17.60;96.70;;;;;;5085396;28;20031;-79
2021/05/29 06:03:41;;;;;;;8.82;3.42;;;17.60;96.70;;;;;;5100333;27;20048;-80
2021/05/29 06:06:09;;;;;;;8.27;3.75;;;17.80;96.70;;;;;;5098755;27;20510;-82
2021/05/29 06:08:38;;;;;;;8.68;3.30;;;17.90;96.70;;;;;;5098922;27;20092;-78
2021/05/29 06:11:07;;;;;;;8.32;3.25;;;17.80;96.70;;;;;;5097284;27;20114;-78
2021/05/29 06:21:44;;;;;;;10.05;4.15;;;18.20;96.70;;;;;;5099511;28;20047;-78
2021/05/29 06:24:14;;;;;;;6.65;2.97;;;18.30;96.70;;;;;;5095333;28;20044;-80
2021/05/29 06:26:44;;;;;;;8.07;3.55;;;18.30;96.70;;;;;;5099275;28;20147;-79
2021/05/29 06:29:12;;;;;;;5.60;2.72;;;18.30;96.70;;;;;;5105725;28;20066;-79
2021/05/29 06:31:40;;;;;;;6.68;3.33;;;18.30;96.70;;;;;;5099995;27;20084;-79
2021/05/29 06:34:08;;;;;;;7.28;3.10;;;18.50;96.70;;;;;;5088767;28;20070;-79
2021/05/29 06:36:37;;;;;;;7.47;2.92;;;18.60;96.70;;;;;;5098699;28;20051;-79
2021/05/29 06:39:06;;;;;;;8.80;3.22;;;18.70;96.70;;;;;;5108112;28;20040;-79
2021/05/29 06:41:36;;;;;;;7.63;3.50;;;18.70;96.70;;;;;;5101112;28;20087;-80
2021/05/29 06:44:06;;;;;;;10.63;4.00;;;18.70;96.70;;;;;;5100285;28;20131;-80
2021/05/29 06:46:34;;;;;;;8.32;4.45;;;18.50;96.70;;;;;;5082365;28;20076;-78
2021/05/29 06:49:04;;;;;;;6.68;3.30;;;18.50;96.70;;;;;;5103022;28;20036;-80
2021/05/29 06:51:38;;;;;;;6.55;3.53;;;18.60;96.70;;;;;;5095886;28;20523;-80
2021/05/29 06:54:14;;;;;;;7.43;3.30;;;18.70;96.70;;;;;;5103697;28;20044;-80
2021/05/29 06:59:30;;;;;;;5.28;3.05;;;18.70;96.70;;;;;;5099213;28;20040;-80
2021/05/29 07:01:59;;;;;;;7.55;3.45;;;18.70;96.70;;;;;;5099715;28;20291;-79
2021/05/29 07:04:27;;;;;;;8.25;3.70;;;18.90;96.70;;;;;;5102751;28;20044;-79
2021/05/29 07:06:56;;;;;;;8.23;3.22;;;18.90;96.70;;;;;;5085442;28;20534;-79
2021/05/29 07:09:26;;;;;;;6.65;3.50;;;19.00;96.70;;;;;;5079895;28;20080;-79
2021/05/29 07:11:55;;;;;;;9.25;3.22;;;19.10;96.70;;;;;;5093964;28;20599;-79
2021/05/29 07:14:24;;;;;;;6.55;2.88;;;19.10;96.70;;;;;;5103282;27;20544;-79
2021/05/29 07:16:56;;;;;;;7.05;3.17;;;19.20;96.70;;;;;;5105278;27;20069;-79
2021/05/29 07:19:25;;;;;;;10.25;3.72;;;19.10;96.70;;;;;;5103126;27;20035;-80
2021/05/29 07:21:53;;;;;;;7.07;3.33;;;19.20;96.70;;;;;;5107401;27;20044;-78
2021/05/29 07:24:22;;;;;;;8.35;3.10;;;19.40;96.70;;;;;;5105277;27;20047;-79
2021/05/29 07:26:51;;;;;;;5.63;2.75;;;19.50;96.70;;;;;;5106582;27;20054;-81
2021/05/29 07:29:20;;;;;;;8.90;3.35;;;19.60;96.70;;;;;;5083804;27;20044;-79
2021/05/29 07:31:48;;;;;;;7.82;3.65;;;19.60;96.70;;;;;;5107465;27;20039;-79
2021/05/29 07:34:18;;;;;;;8.40;3.40;;;19.70;96.70;;;;;;5101108;28;20477;-78
2021/05/29 07:36:46;;;;;;;11.18;3.42;;;19.80;96.70;;;;;;5113735;27;20494;-78
2021/05/29 07:39:14;;;;;;;6.93;3.03;;;19.90;96.70;;;;;;5100644;28;20077;-79
2021/05/29 07:41:42;;;;;;;6.20;3.03;;;19.90;96.70;;;;;;5081356;28;20074;-79
2021/05/29 07:44:11;;;;;;;6.13;2.83;;;19.90;96.70;;;;;;5104065;27;20449;-78
2021/05/29 07:46:39;;;;;;;7.25;3.20;;;20.00;96.70;;;;;;5085809;28;20100;-79
2021/05/29 07:49:08;;;;;;;6.43;2.97;;;20.20;96.70;;;;;;5098120;28;20040;-78
2021/05/29 07:51:38;;;;;;;5.93;2.70;;;20.20;96.70;;;;;;5096960;27;20128;-78
2021/05/29 07:54:07;;;;;;;6.60;2.85;;;20.10;96.70;;;;;;5100680;27;20124;-78
2021/05/29 07:56:36;;;;;;;7.38;2.50;;;20.10;96.70;;;;;;5105258;27;20116;-78
2021/05/29 07:59:12;;;;;;;5.15;2.20;;;20.20;96.70;;;;;;5098455;28;20553;-78
2021/05/29 08:01:40;;;;;;;6.30;2.67;;;20.20;96.70;;;;;;5102102;28;20044;-78
2021/05/29 08:04:08;;;;;;;5.15;2.55;;;20.30;96.70;;;;;;5102738;27;20131;-80
2021/05/29 08:06:38;;;;;;;5.15;2.42;;;20.30;96.70;;;;;;5106633;27;20142;-79
2021/05/29 08:09:07;;;;;;;5.40;2.30;;;20.40;96.70;;;;;;5098930;27;20042;-80
2021/05/29 08:11:38;;;;;;;4.90;2.08;;;20.50;96.70;;;;;;5101842;27;20143;-81
2021/05/29 08:14:08;;;;;;;5.72;2.40;;;20.60;96.70;;;;;;5115292;27;20044;-80
2021/05/29 08:16:36;;;;;;;7.65;2.78;;;20.60;96.70;;;;;;5099191;28;20055;-80
2021/05/29 08:19:10;;;;;;;7.47;2.22;;;20.70;96.70;;;;;;5100742;27;20039;-80
2021/05/29 08:21:42;;;;;;;4.22;2.35;;;20.80;96.70;;;;;;5099169;27;20040;-80
2021/05/29 08:24:11;;;;;;;4.75;1.98;;;20.90;96.70;;;;;;5100267;27;20035;-80
2021/05/29 08:26:40;;;;;;;6.70;2.40;;;21.00;96.70;;;;;;5098853;27;20075;-80
2021/05/29 08:29:14;;;;;;;3.75;2.00;;;20.90;96.40;;;;;;5084494;27;20108;-79
2021/05/29 08:31:43;;;;;;;5.28;2.08;;;20.90;96.70;;;;;;5099498;28;20054;-79
2021/05/29 08:34:12;;;;;;;8.85;2.70;;;20.90;96.60;;;;;;5101847;27;20038;-79
2021/05/29 08:36:42;;;;;;;8.10;2.63;;;21.10;96.70;;;;;;5105871;27;20092;-80
2021/05/29 08:39:11;;;;;;;4.80;2.83;;;21.20;96.70;;;;;;5122240;27;20170;-80
2021/05/29 08:41:40;;;;;;;6.53;2.67;;;21.20;95.60;;;;;;5108011;27;20040;-80
2021/05/29 08:44:10;;;;;;;4.68;2.33;;;21.30;96.00;;;;;;5100753;27;20071;-79
2021/05/29 08:46:39;;;;;;;5.93;2.67;;;21.50;95.20;;;;;;5102077;27;20406;-79
2021/05/29 08:49:07;;;;;;;6.72;1.83;;;21.50;94.80;;;;;;5086723;27;20043;-80
2021/05/29 08:51:36;;;;;;;8.45;2.28;;;21.50;94.30;;;;;;5098982;27;20062;-80
2021/05/29 08:54:05;;;;;;;7.75;2.58;;;21.60;94.00;;;;;;5099695;28;20051;-79
2021/05/29 08:56:34;;;;;;;6.43;1.88;;;21.70;94.00;;;;;;5099894;27;20163;-79
2021/05/29 08:59:03;;;;;;;8.05;2.40;;;21.80;93.90;;;;;;5100480;27;20465;-78
2021/05/29 09:01:31;;;;;;;8.05;2.67;;;21.90;93.50;;;;;;5085137;28;20047;-78
2021/05/29 09:04:03;;;;;;;7.90;2.42;;;22.10;92.30;;;;;;5104360;27;20032;-79
2021/05/29 09:06:41;;;;;;;6.07;2.17;;;22.20;92.40;;;;;;5086542;27;20056;-78
2021/05/29 09:09:12;;;;;;;7.47;2.45;;;22.30;91.30;;;;;;5094720;28;20051;-78
2021/05/29 09:11:47;;;;;;;5.47;2.33;;;22.30;91.30;;;;;;5083076;27;20048;-78
2021/05/29 09:14:35;;;;;;;5.57;2.00;;;22.40;91.40;;;;;;5081378;28;20048;-77
2021/05/29 09:17:06;;;;;;;5.85;2.40;;;22.60;90.10;;;;;;5102888;27;20400;-81
2021/05/29 09:20:08;;;;;;;6.88;2.17;;;22.70;91.20;;;;;;5103643;27;20048;-78
2021/05/29 09:22:39;;;;;;;4.53;1.80;;;23.00;91.60;;;;;;4976546;28;20384;-79
2021/05/29 09:25:12;;;;;;;3.97;1.70;;;23.20;90.20;;;;;;5013266;28;20228;-80
2021/05/29 09:27:53;;;;;;;5.40;2.60;;;23.30;88.40;;;;;;5004046;28;20627;-77
2021/05/29 09:30:44;;;;;;;6.68;3.05;;;23.40;89.10;;;;;;5000322;28;20141;-78
2021/05/29 09:33:15;;;;;;;3.85;2.17;;;23.30;88.60;;;;;;5000128;28;20042;-78
2021/05/29 09:35:53;;;;;;;5.68;2.30;;;23.40;89.20;;;;;;5016750;28;20041;-78
2021/05/29 09:38:23;;;;;;;10.35;3.10;;;23.50;88.70;;;;;;5001021;28;20053;-78
2021/05/29 09:40:54;;;;;;;7.53;2.75;;;23.50;89.10;;;;;;5000625;28;20060;-77
2021/05/29 09:43:23;;;;;;;7.03;3.00;;;23.40;90.10;;;;;;5001890;28;20188;-79
2021/05/29 09:45:59;;;;;;;6.60;2.85;;;23.50;89.40;;;;;;4999825;28;20370;-79
2021/05/29 09:48:29;;;;;;;4.97;2.65;;;23.60;88.90;;;;;;4999882;28;20443;-79
2021/05/29 09:50:59;;;;;;;4.63;2.20;;;23.70;88.30;;;;;;5000884;28;20499;-80
2021/05/29 09:53:29;;;;;;;4.18;2.10;;;23.80;87.80;;;;;;5025518;28;20345;-81
2021/05/29 09:55:59;;;;;;;5.90;1.98;;;23.90;86.90;;;;;;5100058;27;20501;-80
2021/05/29 09:58:49;;;;;;;7.82;2.33;;;23.90;86.50;;;;;;5096165;27;20054;-80
2021/05/29 10:01:49;;;;;;;6.47;2.45;;;24.00;87.30;;;;;;5098614;27;20694;-80
2021/05/29 10:07:03;;;;;;;6.60;2.55;;;24.20;85.80;;;;;;5099566;27;20051;-77
2021/05/29 10:09:32;;;;;;;4.95;1.90;;;24.30;85.10;;;;;;5094836;28;20048;-78
2021/05/29 10:12:04;;;;;;;5.43;1.92;;;24.40;82.80;;;;;;5098395;27;20487;-78
2021/05/29 10:14:34;;;;;;;6.30;2.45;;;24.30;82.60;;;;;;5100236;28;20047;-78
2021/05/29 10:17:04;;;;;;;4.72;2.53;;;24.30;83.80;;;;;;5097740;27;20828;-80
2021/05/29 10:19:34;;;;;;;6.68;2.30;;;24.20;84.80;;;;;;5094761;28;20632;-79
2021/05/29 10:22:05;;;;;;;3.83;1.90;;;24.50;84.90;;;;;;5091397;27;20052;-78
2021/05/29 10:24:35;;;;;;;7.57;2.38;;;24.70;83.20;;;;;;5100166;27;20067;-78
2021/05/29 10:27:10;;;;;;;7.03;2.58;;;24.70;83.00;;;;;;5094252;28;20135;-78
2021/05/29 10:29:39;;;;;;;3.60;1.90;;;24.70;83.40;;;;;;5113389;27;20150;-78
2021/05/29 10:32:16;;;;;;;5.35;2.58;;;24.90;83.80;;;;;;5096700;28;20036;-78
2021/05/29 10:34:56;;;;;;;3.80;2.17;;;25.00;82.10;;;;;;5098628;28;20422;-77
2021/05/29 10:37:36;;;;;;;6.28;2.28;;;25.10;82.60;;;;;;5096156;28;20043;-76
2021/05/29 10:40:31;;;;;;;3.15;1.90;;;25.20;83.00;;;;;;5099548;28;20171;-77
2021/05/29 10:43:10;;;;;;;4.53;2.30;;;25.20;82.30;;;;;;5100473;28;20134;-81
2021/05/29 10:45:39;;;;;;;4.25;2.03;;;25.20;83.40;;;;;;5109389;27;20370;-80
2021/05/29 10:48:11;;;;;;;6.30;2.45;;;25.40;83.00;;;;;;5100631;28;20043;-80
2021/05/29 10:53:41;;;;;;;7.80;2.63;;;25.80;80.50;;;;;;5102643;27;20421;-80
2021/05/29 10:56:30;;;;;;;8.15;1.90;;;25.80;80.70;;;;;;5101635;27;20044;-78
2021/05/29 10:59:12;;;;;;;5.05;2.30;;;25.80;78.60;;;;;;5097534;28;20051;-80
2021/05/29 11:02:07;;;;;;;3.30;2.08;;;25.90;79.30;;;;;;5085882;28;20055;-77
2021/05/29 11:04:37;;;;;;;3.67;1.75;;;25.80;79.20;;;;;;5102326;28;20411;-80
2021/05/29 11:07:24;;;;;;;5.18;2.00;;;25.90;78.10;;;;;;5095927;28;20054;-80
2021/05/29 11:09:54;;;;;;;;;;;25.90;77.20;;;;;;5100424;27;20047;-80
2021/05/29 11:12:51;;;;;;;3.60;1.77;;;26.00;77.00;;;;;;5099722;27;19924;-80
2021/05/29 11:15:41;;;;;;;;;;;26.10;76.50;;;;;;5096896;28;20512;-80
2021/05/29 11:18:10;;;;;;;4.57;1.60;;;26.10;76.50;;;;;;5085418;28;20422;-80
2021/05/29 11:21:06;;;;;;;4.90;1.80;;;26.20;77.20;;;;;;5104042;27;20039;-83
2021/05/29 11:23:36;;;;;;;3.88;1.92;;;26.10;77.50;;;;;;5105192;27;20044;-81
2021/05/29 11:26:07;;;;;;;7.47;2.03;;;26.30;78.80;;;;;;5102672;27;20382;-83
2021/05/29 11:28:37;;;;;;;3.80;1.70;;;26.60;79.20;;;;;;5105981;27;20644;-83
2021/05/29 11:31:08;;;;;;;6.20;1.88;;;26.70;76.40;;;;;;5104545;27;20501;-82
2021/05/29 11:33:38;;;;;;;3.72;1.70;;;26.50;76.70;;;;;;5099322;28;20074;-82
2021/05/29 11:36:07;;;;;;;4.10;1.23;;;26.70;76.50;;;;;;5100322;27;20053;-82
2021/05/29 11:38:40;;;;;;;2.92;1.48;;;26.50;74.40;;;;;;5102307;27;20059;-79
2021/05/29 11:41:11;;;;;;;4.10;1.98;;;26.70;73.80;;;;;;5100603;27;20515;-80
2021/05/29 11:43:42;;;;;;;2.97;1.50;;;26.80;74.30;;;;;;5102603;27;20039;-81
2021/05/29 11:46:13;;;;;;;5.97;1.60;;;26.70;74.70;;;;;;5100390;27;20044;-81
2021/05/29 11:48:44;;;;;;;5.25;1.75;;;26.90;73.90;;;;;;5102441;27;20039;-76
2021/05/29 11:51:18;;;;;;;2.97;1.40;;;27.10;73.40;;;;;;5108890;27;20054;-76
2021/05/29 11:53:49;;;;;;;4.38;1.77;;;27.00;74.30;;;;;;5099612;27;20047;-77
2021/05/29 11:56:20;;;;;;;6.18;1.50;;;27.00;73.40;;;;;;5098480;27;20073;-77
2021/05/29 11:58:53;;;;;;;3.65;1.30;;;27.10;72.50;;;;;;5095957;28;20076;-77
2021/05/29 12:01:24;;;;;;;4.43;1.10;;;27.20;75.20;;;;;;5101882;27;20089;-77
2021/05/29 12:03:59;;;;;;;3.40;1.70;;;27.30;75.80;;;;;;5100981;27;20097;-77
2021/05/29 12:06:37;;;;;;;4.65;1.98;;;27.50;76.50;;;;;;5099757;28;20044;-77
2021/05/29 12:09:09;;;;;;;5.10;1.73;;;27.50;77.40;;;;;;5101812;27;20048;-75
2021/05/29 12:11:39;;;;;;;3.10;1.58;;;27.60;76.90;;;;;;5099200;27;20036;-76
2021/05/29 12:14:12;;;;;;;3.80;1.60;;;27.60;76.10;;;;;;5100283;27;20487;-75
2021/05/29 12:16:44;;;;;;;3.20;1.70;;;27.50;76.00;;;;;;5101114;27;20038;-76
2021/05/29 12:19:31;;;;;;;8.77;2.03;;;27.30;76.10;;;;;;5102181;27;20230;-75
2021/05/29 12:22:03;;;;;;;2.88;1.50;;;27.30;78.30;;;;;;5102632;27;20047;-75
2021/05/29 12:24:41;;;;;;;4.25;1.52;;;27.30;76.40;;;;;;5102888;27;20053;-75
2021/05/29 12:27:16;;;;;;;3.80;1.50;;;27.40;77.00;;;;;;5096634;27;20299;-76
2021/05/29 12:29:46;;;;;;;3.17;1.20;;;27.60;75.80;;;;;;5108318;27;20126;-78
2021/05/29 12:32:30;;;;;;;4.35;1.20;;;27.60;76.50;;;;;;5106516;27;20047;-79
2021/05/29 12:35:30;;;;;;;4.25;1.45;;;27.50;75.50;;;;;;5101364;27;20126;-79
2021/05/29 12:38:08;;;;;;;3.05;1.17;;;27.30;76.00;;;;;;5083150;27;20074;-78
2021/05/29 12:40:37;;;;;;;3.95;1.48;;;27.20;76.20;;;;;;5101087;28;20054;-77
2021/05/29 12:43:13;;;;;;;5.20;1.70;;;27.00;77.10;;;;;;5098130;27;20043;-76
2021/05/29 12:45:42;;;;;;;2.33;1.38;;;27.10;75.90;;;;;;5084236;27;20051;-76
2021/05/29 12:48:17;;;;;;;3.55;1.13;;;27.20;75.30;;;;;;5102542;27;20056;-75
2021/05/29 12:50:59;;;;;;;2.17;0.90;;;27.50;74.50;;;;;;5100137;28;20040;-75
2021/05/29 12:53:30;;;;;;;4.45;1.08;;;27.50;74.80;;;;;;5101010;27;20043;-76
2021/05/29 12:56:13;;;;;;;1.80;1.10;;;27.90;74.70;;;;;;5102199;27;20065;-75
2021/05/29 12:58:58;;;;;;;4.57;1.25;;;28.00;72.70;;;;;;5104246;27;20634;-75
2021/05/29 13:07:29;;;;;;;3.22;1.15;;;27.90;71.10;;;;;;5102742;27;20607;-76
2021/05/29 13:12:33;;;;;;;2.45;0.80;;;28.00;70.20;;;;;;5103477;27;20011;-76
2021/05/29 13:15:13;;;;;;;2.13;1.20;;;28.10;70.00;;;;;;5101119;28;20047;-76
2021/05/29 13:17:42;;;;;;;6.18;1.50;;;28.20;70.10;;;;;;5106579;27;20035;-76
2021/05/29 13:20:18;;;;;;;3.03;1.10;;;28.30;70.60;;;;;;5083614;27;20081;-76
2021/05/29 13:22:57;;;;;;;1.67;0.98;;;28.00;69.70;;;;;;5101930;27;20042;-76
2021/05/29 13:25:35;;;;;;;2.80;0.98;;;27.80;70.50;;;;;;5096658;27;20050;-75
2021/05/29 13:28:08;;;;;;;6.63;1.42;;;27.70;70.90;;;;;;5097528;28;20122;-76
2021/05/29 13:30:41;;;;;;;4.68;1.20;;;27.80;70.90;;;;;;5102273;27;20040;-75
2021/05/29 13:33:12;;;;;;;3.40;1.10;;;28.00;71.20;;;;;;5100528;27;20488;-76
2021/05/29 13:35:43;;;;;;;2.95;1.20;;;28.20;70.80;;;;;;5103193;27;20065;-76